Time;durP1;ratioP1;P1;durP2;ratioP2;P2;SDS_P1;SDS_P2;PMS_P1;PMS_P2;Temp;Humidity;BMP_temperature;BMP_pressure;BME280_temperature;BME280_humidity;BME280_pressure;Samples;Min_cycle;Max_cycle;Signal;HPM_P1;HPM_P2
2024/02/26 00:01:46;;;;;;;3.58;2.80;;;;;;;;;;5003030;28;20057;-85
2024/02/26 00:04:12;;;;;;;3.80;3.20;;;;;;;;;;5009252;28;20038;-85
2024/02/26 00:06:39;;;;;;;5.72;3.70;;;;;;;;;;5010017;28;20034;-84
2024/02/26 00:09:06;;;;;;;4.88;3.70;;;;;;;;;;5024748;28;20056;-85
2024/02/26 00:11:31;;;;;;;5.25;3.78;;;;;;;;;;4995471;28;20054;-85
2024/02/26 00:13:57;;;;;;;4.07;3.03;;;;;;;;;;5006422;28;20047;-84
2024/02/26 00:16:23;;;;;;;4.43;3.38;;;;;;;;;;5026736;28;20055;-85
2024/02/26 00:18:48;;;;;;;4.47;3.33;;;;;;;;;;4999200;28;20501;-85
2024/02/26 00:21:13;;;;;;;4.43;3.38;;;;;;;;;;5029635;28;20530;-85
2024/02/26 00:23:39;;;;;;;4.45;3.55;;;;;;;;;;5019311;28;20114;-86
2024/02/26 00:26:04;;;;;;;3.92;3.17;;;;;;;;;;5022237;28;20046;-85
2024/02/26 00:28:30;;;;;;;4.55;3.50;;;;;;;;;;5044884;28;20040;-85
2024/02/26 00:30:56;;;;;;;3.97;2.97;;;;;;;;;;5028933;28;20099;-85
2024/02/26 00:33:23;;;;;;;4.93;3.72;;;;;;;;;;5021025;28;20477;-85
2024/02/26 00:35:48;;;;;;;3.70;3.15;;;;;;;;;;5014251;28;20068;-85
2024/02/26 00:38:20;;;;;;;5.07;3.60;;;;;;;;;;5025792;28;20034;-84
2024/02/26 00:40:45;;;;;;;5.13;3.55;;;;;;;;;;5015556;28;20285;-85
2024/02/26 00:43:11;;;;;;;4.35;3.63;;;;;;;;;;5012810;28;20493;-84
2024/02/26 00:45:36;;;;;;;4.90;3.70;;;;;;;;;;4994770;28;20092;-84
2024/02/26 00:48:04;;;;;;;4.82;3.67;;;;;;;;;;5016983;28;20054;-84
2024/02/26 00:50:30;;;;;;;5.40;3.78;;;;;;;;;;5018288;28;20037;-85
2024/02/26 00:52:56;;;;;;;4.40;3.38;;;;;;;;;;5031721;28;20103;-85
2024/02/26 00:55:21;;;;;;;5.47;3.70;;;;;;;;;;5002826;28;20018;-85
2024/02/26 00:57:46;;;;;;;4.20;3.22;;;;;;;;;;5013841;28;20412;-84
2024/02/26 01:00:30;;;;;;;4.38;3.47;;;;;;;;;;5017593;28;20030;-85
2024/02/26 01:02:56;;;;;;;5.40;3.60;;;;;;;;;;4997850;28;20037;-85
2024/02/26 01:05:21;;;;;;;5.00;3.58;;;;;;;;;;5006765;28;20026;-85
2024/02/26 01:07:47;;;;;;;4.32;3.45;;;;;;;;;;5019167;28;20497;-85
2024/02/26 01:10:12;;;;;;;4.10;3.35;;;;;;;;;;5021380;28;20140;-84
2024/02/26 01:12:37;;;;;;;4.68;3.33;;;;;;;;;;5016351;28;20042;-84
2024/02/26 01:15:03;;;;;;;4.35;3.20;;;;;;;;;;5023447;28;20026;-85
2024/02/26 01:17:28;;;;;;;5.72;3.58;;;;;;;;;;5018484;28;20044;-86
2024/02/26 01:19:56;;;;;;;5.18;3.38;;;;;;;;;;5032343;28;20523;-84
2024/02/26 01:22:58;;;;;;;4.15;3.28;;;;;;;;;;5034536;28;20088;-85
2024/02/26 01:25:23;;;;;;;4.97;3.88;;;;;;;;;;5031509;28;20044;-85
2024/02/26 01:27:48;;;;;;;4.20;3.40;;;;;;;;;;5054446;28;20022;-85
2024/02/26 01:30:16;;;;;;;4.22;3.33;;;;;;;;;;5047166;28;20042;-84
2024/02/26 01:32:42;;;;;;;5.60;3.50;;;;;;;;;;5040265;28;20033;-85
2024/02/26 01:35:10;;;;;;;5.00;3.60;;;;;;;;;;5010202;28;20085;-84
2024/02/26 01:37:35;;;;;;;4.25;3.63;;;;;;;;;;5005602;28;20088;-85
2024/02/26 01:40:03;;;;;;;4.50;3.50;;;;;;;;;;5016481;28;20018;-84
2024/02/26 01:42:29;;;;;;;3.92;3.25;;;;;;;;;;5025879;28;20037;-85
2024/02/26 01:44:54;;;;;;;4.63;3.50;;;;;;;;;;5009005;28;20042;-84
2024/02/26 01:47:20;;;;;;;4.57;3.53;;;;;;;;;;5014913;28;20049;-85
2024/02/26 01:49:45;;;;;;;4.10;3.20;;;;;;;;;;5000078;28;20056;-85
2024/02/26 01:52:11;;;;;;;4.35;3.35;;;;;;;;;;5012331;28;20164;-82
2024/02/26 01:54:36;;;;;;;5.35;3.53;;;;;;;;;;4996982;28;20026;-83
2024/02/26 01:57:03;;;;;;;5.22;3.80;;;;;;;;;;5007429;28;20029;-84
2024/02/26 01:59:28;;;;;;;4.55;3.53;;;;;;;;;;5001040;28;20057;-84
2024/02/26 02:01:54;;;;;;;4.60;3.70;;;;;;;;;;5018913;28;20026;-83
2024/02/26 02:04:20;;;;;;;4.32;3.33;;;;;;;;;;4997403;28;20046;-85
2024/02/26 02:06:46;;;;;;;4.00;3.17;;;;;;;;;;5021479;28;20448;-84
2024/02/26 02:09:11;;;;;;;4.93;3.60;;;;;;;;;;5018895;28;20020;-84
2024/02/26 02:11:37;;;;;;;4.07;3.38;;;;;;;;;;5001421;28;20485;-84
2024/02/26 02:14:02;;;;;;;4.32;3.45;;;;;;;;;;5035263;28;20083;-84
2024/02/26 02:16:27;;;;;;;4.82;3.53;;;;;;;;;;5015836;28;20029;-84
2024/02/26 02:18:53;;;;;;;4.53;3.38;;;;;;;;;;5024974;28;20030;-85
2024/02/26 02:21:18;;;;;;;4.22;3.53;;;;;;;;;;5030328;28;20124;-85
2024/02/26 02:23:46;;;;;;;4.30;3.40;;;;;;;;;;5025153;28;20022;-83
2024/02/26 02:26:12;;;;;;;5.30;3.58;;;;;;;;;;5023356;28;20042;-84
2024/02/26 02:28:54;;;;;;;4.88;3.50;;;;;;;;;;5017296;28;20025;-85
2024/02/26 02:31:19;;;;;;;4.30;3.50;;;;;;;;;;5019085;28;20042;-85
2024/02/26 02:33:45;;;;;;;5.00;3.47;;;;;;;;;;5015352;28;20130;-85
2024/02/26 02:36:11;;;;;;;5.30;3.90;;;;;;;;;;5031498;28;20042;-84
2024/02/26 02:38:36;;;;;;;3.78;3.17;;;;;;;;;;5010283;28;20050;-84
2024/02/26 02:41:02;;;;;;;4.55;3.42;;;;;;;;;;5030670;28;20452;-84
2024/02/26 02:43:27;;;;;;;5.13;3.67;;;;;;;;;;5020863;28;20051;-84
2024/02/26 02:45:52;;;;;;;3.85;3.33;;;;;;;;;;5030943;28;20021;-84
2024/02/26 02:48:18;;;;;;;3.80;3.22;;;;;;;;;;5030661;28;20037;-84
2024/02/26 02:50:43;;;;;;;4.68;3.60;;;;;;;;;;5019518;28;20045;-84
2024/02/26 02:53:08;;;;;;;5.75;3.92;;;;;;;;;;5014452;28;20153;-85
2024/02/26 02:55:35;;;;;;;5.57;3.92;;;;;;;;;;5011742;28;20555;-84
2024/02/26 02:58:00;;;;;;;4.63;3.45;;;;;;;;;;5034692;28;20088;-83
2024/02/26 03:00:26;;;;;;;5.15;3.50;;;;;;;;;;5028309;28;20033;-84
2024/02/26 03:02:51;;;;;;;3.92;3.20;;;;;;;;;;5010937;28;20125;-84
2024/02/26 03:05:16;;;;;;;5.03;3.72;;;;;;;;;;5015229;28;20088;-86
2024/02/26 03:07:43;;;;;;;4.30;3.30;;;;;;;;;;5018500;28;20098;-85
2024/02/26 03:10:08;;;;;;;4.45;3.00;;;;;;;;;;5021732;28;20041;-84
2024/02/26 03:12:34;;;;;;;4.90;3.65;;;;;;;;;;5009163;28;20567;-85
2024/02/26 03:15:02;;;;;;;5.18;3.53;;;;;;;;;;5011923;28;20504;-85
2024/02/26 03:17:27;;;;;;;4.97;3.72;;;;;;;;;;5016203;28;20122;-85
2024/02/26 03:19:54;;;;;;;4.55;3.67;;;;;;;;;;5030316;28;20013;-85
2024/02/26 03:22:20;;;;;;;4.38;3.10;;;;;;;;;;5028132;28;20026;-85
2024/02/26 03:24:46;;;;;;;4.30;3.63;;;;;;;;;;4995812;28;20034;-85
2024/02/26 03:27:12;;;;;;;4.82;3.63;;;;;;;;;;5026316;28;20113;-85
2024/02/26 03:29:37;;;;;;;3.78;3.20;;;;;;;;;;5009984;28;20050;-85
2024/02/26 03:32:04;;;;;;;5.03;3.70;;;;;;;;;;5007850;28;20030;-85
2024/02/26 03:34:30;;;;;;;4.28;3.42;;;;;;;;;;5025709;28;20041;-85
2024/02/26 03:36:56;;;;;;;4.40;3.80;;;;;;;;;;5018982;28;20527;-85
2024/02/26 03:39:22;;;;;;;4.55;3.50;;;;;;;;;;5024659;28;20030;-85
2024/02/26 03:41:54;;;;;;;4.63;3.60;;;;;;;;;;5037508;28;20033;-84
2024/02/26 03:44:21;;;;;;;5.20;3.70;;;;;;;;;;5033139;28;20116;-85
2024/02/26 03:46:58;;;;;;;4.80;3.50;;;;;;;;;;5017165;28;20566;-85
2024/02/26 03:49:23;;;;;;;5.03;3.78;;;;;;;;;;5018366;28;20029;-85
2024/02/26 03:52:03;;;;;;;4.95;3.53;;;;;;;;;;5005893;28;20042;-85
2024/02/26 03:54:36;;;;;;;4.28;3.50;;;;;;;;;;4999738;28;20042;-85
2024/02/26 03:59:56;;;;;;;5.00;3.60;;;;;;;;;;5028576;28;20034;-85
2024/02/26 04:02:31;;;;;;;4.28;3.15;;;;;;;;;;5035161;28;20018;-86
2024/02/26 04:04:56;;;;;;;4.00;3.28;;;;;;;;;;5039935;28;20106;-85
2024/02/26 04:07:22;;;;;;;4.55;3.53;;;;;;;;;;5039188;28;20033;-85
2024/02/26 04:09:47;;;;;;;4.57;3.72;;;;;;;;;;5039220;28;20034;-85
2024/02/26 04:12:13;;;;;;;4.18;3.55;;;;;;;;;;5040633;28;20037;-85
2024/02/26 04:14:46;;;;;;;5.00;3.65;;;;;;;;;;5038666;28;20033;-85
2024/02/26 04:17:12;;;;;;;4.63;3.47;;;;;;;;;;5028254;28;20059;-82
2024/02/26 04:19:37;;;;;;;4.00;3.25;;;;;;;;;;5041810;28;20022;-82
2024/02/26 04:22:02;;;;;;;4.40;3.28;;;;;;;;;;5035749;28;20070;-82
2024/02/26 04:24:28;;;;;;;4.68;3.70;;;;;;;;;;5043365;28;20030;-81
2024/02/26 04:26:53;;;;;;;4.07;3.47;;;;;;;;;;5014116;28;20026;-84
2024/02/26 04:29:18;;;;;;;4.65;3.67;;;;;;;;;;5024743;28;20025;-85
2024/02/26 04:31:45;;;;;;;5.82;3.45;;;;;;;;;;5023720;28;20073;-83
2024/02/26 04:34:11;;;;;;;4.45;3.15;;;;;;;;;;5026287;28;20020;-83
2024/02/26 04:36:37;;;;;;;4.65;3.45;;;;;;;;;;5032575;28;20026;-85
2024/02/26 04:39:02;;;;;;;4.20;3.45;;;;;;;;;;5013034;28;20121;-84
2024/02/26 04:41:28;;;;;;;5.18;3.80;;;;;;;;;;5022695;28;20556;-85
2024/02/26 04:43:53;;;;;;;4.07;3.35;;;;;;;;;;5021954;28;20018;-84
2024/02/26 04:46:19;;;;;;;4.97;3.70;;;;;;;;;;5015506;28;20026;-85
2024/02/26 04:48:46;;;;;;;4.18;3.40;;;;;;;;;;5003259;28;20025;-85
2024/02/26 04:51:11;;;;;;;4.47;3.60;;;;;;;;;;5023382;28;20441;-85
2024/02/26 04:53:37;;;;;;;4.35;3.38;;;;;;;;;;5031475;28;20064;-85
2024/02/26 04:56:03;;;;;;;4.88;3.47;;;;;;;;;;5017589;28;20021;-84
2024/02/26 04:58:29;;;;;;;4.40;3.60;;;;;;;;;;5015873;28;20367;-85
2024/02/26 05:00:54;;;;;;;4.38;3.42;;;;;;;;;;5021858;28;20021;-85
2024/02/26 05:03:19;;;;;;;4.82;3.40;;;;;;;;;;5024540;28;20041;-84
2024/02/26 05:05:45;;;;;;;5.28;3.40;;;;;;;;;;5033640;28;20017;-85
2024/02/26 05:08:10;;;;;;;4.72;3.67;;;;;;;;;;5018950;28;20762;-84
2024/02/26 05:10:39;;;;;;;3.95;3.15;;;;;;;;;;5024835;28;20025;-84
2024/02/26 05:13:05;;;;;;;5.10;3.58;;;;;;;;;;5014656;28;20021;-85
2024/02/26 05:15:30;;;;;;;4.65;3.60;;;;;;;;;;5025909;28;20523;-84
2024/02/26 05:17:55;;;;;;;3.97;3.40;;;;;;;;;;5028308;28;20033;-85
2024/02/26 05:20:21;;;;;;;5.45;4.13;;;;;;;;;;5025081;28;20061;-85
2024/02/26 05:22:47;;;;;;;4.90;3.45;;;;;;;;;;5006249;28;20041;-88
2024/02/26 05:25:14;;;;;;;4.40;3.60;;;;;;;;;;4997740;28;20471;-85
2024/02/26 05:27:39;;;;;;;4.80;3.72;;;;;;;;;;5018709;28;20037;-89
2024/02/26 05:30:06;;;;;;;5.07;3.63;;;;;;;;;;5006462;28;20437;-81
2024/02/26 05:32:45;;;;;;;5.00;3.58;;;;;;;;;;5005510;28;20100;-80
2024/02/26 05:35:11;;;;;;;4.28;3.40;;;;;;;;;;5005407;28;20169;-80
2024/02/26 05:37:36;;;;;;;6.03;3.40;;;;;;;;;;5001876;28;20121;-83
2024/02/26 05:40:04;;;;;;;4.95;3.60;;;;;;;;;;5015435;28;20104;-80
2024/02/26 05:42:29;;;;;;;4.97;3.55;;;;;;;;;;5021540;28;20075;-82
2024/02/26 05:44:55;;;;;;;4.82;3.15;;;;;;;;;;5009665;28;20052;-82
2024/02/26 05:47:20;;;;;;;4.03;3.20;;;;;;;;;;5007785;28;20045;-84
2024/02/26 05:49:45;;;;;;;4.00;3.20;;;;;;;;;;5017083;28;20104;-84
2024/02/26 05:52:11;;;;;;;4.90;3.70;;;;;;;;;;5004240;28;20519;-79
2024/02/26 05:54:40;;;;;;;4.00;3.05;;;;;;;;;;5006054;28;20038;-84
2024/02/26 05:57:06;;;;;;;4.65;3.70;;;;;;;;;;5009552;28;20123;-79
2024/02/26 05:59:31;;;;;;;4.18;3.20;;;;;;;;;;5003381;28;20041;-79
2024/02/26 06:01:57;;;;;;;4.50;3.38;;;;;;;;;;5011561;28;20038;-80
2024/02/26 06:04:23;;;;;;;4.88;3.35;;;;;;;;;;5019684;28;20049;-92
2024/02/26 06:06:49;;;;;;;5.13;3.25;;;;;;;;;;5006618;28;20033;-84
2024/02/26 06:09:14;;;;;;;5.18;3.50;;;;;;;;;;5010210;28;20057;-83
2024/02/26 06:11:39;;;;;;;4.05;3.20;;;;;;;;;;5013205;28;20050;-82
2024/02/26 06:14:05;;;;;;;5.28;3.58;;;;;;;;;;5012702;28;20503;-80
2024/02/26 06:19:33;;;;;;;4.85;3.60;;;;;;;;;;5010173;28;20040;-82
2024/02/26 06:21:58;;;;;;;4.15;3.25;;;;;;;;;;5014475;28;20046;-83
2024/02/26 06:24:24;;;;;;;4.25;3.50;;;;;;;;;;5018798;28;20049;-87
2024/02/26 06:26:49;;;;;;;5.03;3.63;;;;;;;;;;5010970;28;20049;-91
2024/02/26 06:29:26;;;;;;;4.47;3.30;;;;;;;;;;5015793;28;20041;-85
2024/02/26 06:31:53;;;;;;;4.07;3.30;;;;;;;;;;5009018;28;20531;-79
2024/02/26 06:34:23;;;;;;;3.92;3.30;;;;;;;;;;5004554;28;20026;-82
2024/02/26 06:36:48;;;;;;;4.95;3.55;;;;;;;;;;5011973;28;20041;-83
2024/02/26 06:39:18;;;;;;;4.82;3.60;;;;;;;;;;5015699;28;20197;-75
2024/02/26 06:41:46;;;;;;;5.85;3.20;;;;;;;;;;5024156;28;20034;-79
2024/02/26 06:44:12;;;;;;;4.03;3.20;;;;;;;;;;5004544;28;20040;-81
2024/02/26 06:46:38;;;;;;;5.10;3.45;;;;;;;;;;5012719;28;20042;-88
2024/02/26 06:49:03;;;;;;;4.47;3.60;;;;;;;;;;5006809;28;20430;-83
2024/02/26 06:51:29;;;;;;;5.88;3.83;;;;;;;;;;5009586;28;20074;-88
2024/02/26 06:53:55;;;;;;;5.00;3.70;;;;;;;;;;5006699;28;20038;-84
2024/02/26 06:56:28;;;;;;;4.95;3.70;;;;;;;;;;5019961;28;20114;-85
2024/02/26 06:58:54;;;;;;;5.82;3.45;;;;;;;;;;4990752;28;20033;-84
2024/02/26 07:01:20;;;;;;;4.32;3.35;;;;;;;;;;5015280;28;20120;-86
2024/02/26 07:06:29;;;;;;;7.38;3.72;;;;;;;;;;5010346;28;20088;-88
2024/02/26 07:09:13;;;;;;;7.00;3.33;;;;;;;;;;5023246;28;20409;-85
2024/02/26 07:11:58;;;;;;;7.75;3.97;;;;;;;;;;5016477;28;20049;-88
2024/02/26 07:14:32;;;;;;;6.30;3.78;;;;;;;;;;5029553;28;20089;-86
2024/02/26 07:17:00;;;;;;;8.85;3.80;;;;;;;;;;5021943;28;20049;-81
2024/02/26 07:19:28;;;;;;;8.82;3.90;;;;;;;;;;5023273;28;20046;-82
2024/02/26 07:21:55;;;;;;;12.48;4.15;;;;;;;;;;5014100;28;20053;-80
2024/02/26 07:24:21;;;;;;;6.90;3.80;;;;;;;;;;5014037;28;20445;-84
2024/02/26 07:26:47;;;;;;;11.50;3.85;;;;;;;;;;5017917;28;20034;-83
2024/02/26 07:29:12;;;;;;;5.75;4.00;;;;;;;;;;5015595;28;20022;-86
2024/02/26 07:31:37;;;;;;;8.07;3.90;;;;;;;;;;5029998;28;20034;-91
2024/02/26 07:34:03;;;;;;;12.80;6.35;;;;;;;;;;5030695;28;20014;-83
2024/02/26 07:36:28;;;;;;;8.82;4.93;;;;;;;;;;5031672;28;20128;-84
2024/02/26 07:38:54;;;;;;;11.18;4.22;;;;;;;;;;5010904;28;20053;-82
2024/02/26 07:41:19;;;;;;;9.52;4.18;;;;;;;;;;5028836;28;20963;-79
2024/02/26 07:43:45;;;;;;;9.55;4.30;;;;;;;;;;5032537;28;20057;-86
2024/02/26 07:46:13;;;;;;;8.88;3.90;;;;;;;;;;5031325;28;20025;-86
2024/02/26 07:48:39;;;;;;;9.23;4.07;;;;;;;;;;5032278;28;20109;-83
2024/02/26 07:51:04;;;;;;;8.02;3.80;;;;;;;;;;5028258;28;20030;-87
2024/02/26 07:53:30;;;;;;;9.73;4.15;;;;;;;;;;5001458;28;20772;-84
2024/02/26 07:55:55;;;;;;;7.03;3.67;;;;;;;;;;5012939;28;20034;-77
2024/02/26 07:58:21;;;;;;;8.13;3.67;;;;;;;;;;5012428;28;20089;-78
2024/02/26 08:00:47;;;;;;;10.63;4.13;;;;;;;;;;5012544;28;20038;-85
2024/02/26 08:03:13;;;;;;;11.27;4.00;;;;;;;;;;5007174;28;20038;-79
2024/02/26 08:05:39;;;;;;;6.68;4.20;;;;;;;;;;5010096;28;20040;-78
2024/02/26 08:08:06;;;;;;;8.15;4.07;;;;;;;;;;5012849;28;20045;-86
2024/02/26 08:10:31;;;;;;;9.73;3.95;;;;;;;;;;5016267;28;20050;-79
2024/02/26 08:13:04;;;;;;;8.40;3.72;;;;;;;;;;5004676;28;20064;-79
2024/02/26 08:15:30;;;;;;;5.70;4.00;;;;;;;;;;5010446;28;20045;-79
2024/02/26 08:17:55;;;;;;;7.72;4.03;;;;;;;;;;5010628;28;20038;-80
2024/02/26 08:20:21;;;;;;;7.47;4.03;;;;;;;;;;5011678;28;20076;-79
2024/02/26 08:22:46;;;;;;;6.05;3.83;;;;;;;;;;5006783;28;20081;-80
2024/02/26 08:25:11;;;;;;;7.45;4.13;;;;;;;;;;5008558;28;20061;-78
2024/02/26 08:27:37;;;;;;;7.40;4.30;;;;;;;;;;5019914;28;20057;-79
2024/02/26 08:30:02;;;;;;;6.65;3.58;;;;;;;;;;5009473;28;20021;-78
2024/02/26 08:32:27;;;;;;;11.80;4.35;;;;;;;;;;5000662;28;20695;-79
2024/02/26 08:34:53;;;;;;;8.23;4.20;;;;;;;;;;5012235;28;20038;-79
2024/02/26 08:37:20;;;;;;;7.30;3.92;;;;;;;;;;5009997;28;20038;-78
2024/02/26 08:39:45;;;;;;;7.38;4.50;;;;;;;;;;5007325;28;20146;-78
2024/02/26 08:42:11;;;;;;;6.97;4.07;;;;;;;;;;5018036;28;20045;-79
2024/02/26 08:44:36;;;;;;;8.38;4.80;;;;;;;;;;5011589;28;20034;-79
2024/02/26 08:47:22;;;;;;;7.10;3.88;;;;;;;;;;5010485;28;20041;-79
2024/02/26 08:49:47;;;;;;;6.60;4.00;;;;;;;;;;5011474;28;20064;-80
2024/02/26 08:52:13;;;;;;;8.43;3.85;;;;;;;;;;5009528;28;20041;-79
2024/02/26 08:54:38;;;;;;;8.30;4.20;;;;;;;;;;5015935;28;20500;-79
2024/02/26 08:57:05;;;;;;;8.07;3.85;;;;;;;;;;5008018;28;20042;-80
2024/02/26 08:59:30;;;;;;;10.10;4.20;;;;;;;;;;5012310;28;20042;-77
2024/02/26 09:01:56;;;;;;;6.22;3.90;;;;;;;;;;5011511;28;20040;-79
2024/02/26 09:04:21;;;;;;;6.13;4.10;;;;;;;;;;5018653;28;20033;-77
2024/02/26 09:06:47;;;;;;;6.85;3.97;;;;;;;;;;5015430;28;20037;-80
2024/02/26 09:09:12;;;;;;;6.43;4.07;;;;;;;;;;5010789;28;20037;-78
2024/02/26 09:11:37;;;;;;;7.40;3.90;;;;;;;;;;5010739;28;20046;-79
2024/02/26 09:14:06;;;;;;;6.18;4.05;;;;;;;;;;5006549;28;20030;-79
2024/02/26 09:16:31;;;;;;;8.30;4.03;;;;;;;;;;5026718;28;20041;-78
2024/02/26 09:18:56;;;;;;;6.93;4.10;;;;;;;;;;5009486;28;20538;-80
2024/02/26 09:21:23;;;;;;;8.30;3.97;;;;;;;;;;5011102;28;20141;-79
2024/02/26 09:23:52;;;;;;;7.32;4.00;;;;;;;;;;5019151;28;20065;-80
2024/02/26 09:26:17;;;;;;;6.97;4.30;;;;;;;;;;5013557;28;20030;-87
2024/02/26 09:28:43;;;;;;;8.55;4.28;;;;;;;;;;5008982;28;20060;-89
2024/02/26 09:31:08;;;;;;;5.97;4.03;;;;;;;;;;5029983;28;20041;-80
2024/02/26 09:33:33;;;;;;;7.35;3.97;;;;;;;;;;5009328;28;20030;-78
2024/02/26 09:36:00;;;;;;;6.13;4.07;;;;;;;;;;5018061;28;20720;-80
2024/02/26 09:38:26;;;;;;;5.50;3.50;;;;;;;;;;5018513;28;20041;-79
2024/02/26 09:40:51;;;;;;;4.90;3.70;;;;;;;;;;5020871;28;20428;-79
2024/02/26 09:43:17;;;;;;;5.22;4.07;;;;;;;;;;5022293;28;20036;-79
2024/02/26 09:45:43;;;;;;;6.57;3.97;;;;;;;;;;5013556;28;20029;-79
2024/02/26 09:48:08;;;;;;;5.75;4.30;;;;;;;;;;5017288;28;20030;-79
2024/02/26 09:50:34;;;;;;;6.18;3.90;;;;;;;;;;5013733;28;20494;-79
2024/02/26 09:53:02;;;;;;;5.95;3.70;;;;;;;;;;5014433;28;20606;-80
2024/02/26 09:55:27;;;;;;;5.18;3.95;;;;;;;;;;4984731;28;20733;-79
2024/02/26 09:57:53;;;;;;;6.85;4.03;;;;;;;;;;5027481;28;20054;-79
2024/02/26 10:00:21;;;;;;;6.82;4.40;;;;;;;;;;5013012;28;20045;-78
2024/02/26 10:02:49;;;;;;;5.43;3.58;;;;;;;;;;5019708;28;20095;-78
2024/02/26 10:05:18;;;;;;;6.03;4.03;;;;;;;;;;5009543;28;20107;-78
2024/02/26 10:07:44;;;;;;;6.22;4.30;;;;;;;;;;5009922;28;20079;-78
2024/02/26 10:10:09;;;;;;;6.03;3.83;;;;;;;;;;5005347;28;20053;-79
2024/02/26 10:12:37;;;;;;;6.47;4.00;;;;;;;;;;5010254;28;20073;-86
2024/02/26 10:15:02;;;;;;;7.47;3.97;;;;;;;;;;5025301;28;20088;-86
2024/02/26 10:17:28;;;;;;;5.45;4.00;;;;;;;;;;5013882;28;20477;-87
2024/02/26 10:19:56;;;;;;;6.25;3.58;;;;;;;;;;5015191;28;20050;-86
2024/02/26 10:22:22;;;;;;;6.35;3.80;;;;;;;;;;5017698;28;20509;-86
2024/02/26 10:24:47;;;;;;;6.35;3.60;;;;;;;;;;5011171;28;20054;-86
2024/02/26 10:27:13;;;;;;;6.10;3.90;;;;;;;;;;5036580;28;20033;-86
2024/02/26 10:29:38;;;;;;;6.35;3.65;;;;;;;;;;5026207;28;20133;-85
2024/02/26 10:32:05;;;;;;;5.90;3.70;;;;;;;;;;5018357;28;20060;-86
2024/02/26 10:34:30;;;;;;;5.88;3.95;;;;;;;;;;5042181;28;20037;-86
2024/02/26 10:36:56;;;;;;;6.28;3.58;;;;;;;;;;5030300;28;20041;-87
2024/02/26 10:39:21;;;;;;;5.97;3.80;;;;;;;;;;5019098;28;20118;-87
2024/02/26 10:41:46;;;;;;;6.20;4.18;;;;;;;;;;5015826;28;20092;-86
2024/02/26 10:44:20;;;;;;;8.27;3.45;;;;;;;;;;5004906;28;20493;-83
2024/02/26 10:46:52;;;;;;;6.40;3.95;;;;;;;;;;4998012;28;20090;-85
2024/02/26 10:49:20;;;;;;;7.35;3.50;;;;;;;;;;5006686;28;20121;-86
2024/02/26 10:51:47;;;;;;;8.45;4.00;;;;;;;;;;5012717;28;20064;-86
2024/02/26 10:54:15;;;;;;;6.82;3.50;;;;;;;;;;5005266;28;20060;-86
2024/02/26 10:56:41;;;;;;;8.23;4.20;;;;;;;;;;5010617;28;20022;-86
2024/02/26 10:59:07;;;;;;;6.45;4.05;;;;;;;;;;5004180;28;20034;-85
2024/02/26 11:01:32;;;;;;;6.05;3.67;;;;;;;;;;5010493;28;20092;-83
2024/02/26 11:03:58;;;;;;;11.63;4.03;;;;;;;;;;5005122;28;20033;-87
2024/02/26 11:06:26;;;;;;;8.63;3.65;;;;;;;;;;4993412;28;20034;-82
2024/02/26 11:08:52;;;;;;;11.20;3.80;;;;;;;;;;5008371;28;20099;-84
2024/02/26 11:11:17;;;;;;;7.63;3.63;;;;;;;;;;5017568;28;20117;-84
2024/02/26 11:13:45;;;;;;;8.65;3.65;;;;;;;;;;5007680;28;20041;-85
2024/02/26 11:16:12;;;;;;;8.32;4.10;;;;;;;;;;5012477;28;20040;-84
2024/02/26 11:18:37;;;;;;;9.02;3.85;;;;;;;;;;5008507;28;20037;-87
2024/02/26 11:21:03;;;;;;;8.10;3.65;;;;;;;;;;5002021;28;20132;-89
2024/02/26 11:23:28;;;;;;;11.15;4.20;;;;;;;;;;5013378;28;20057;-82
2024/02/26 11:25:54;;;;;;;11.50;3.88;;;;;;;;;;5018445;28;20049;-83
2024/02/26 11:28:21;;;;;;;9.20;3.72;;;;;;;;;;5008840;28;20041;-86
2024/02/26 11:30:47;;;;;;;9.57;3.88;;;;;;;;;;4993305;28;20041;-84
2024/02/26 11:33:14;;;;;;;11.02;3.80;;;;;;;;;;5013381;28;20124;-89
2024/02/26 11:38:44;;;;;;;8.50;3.70;;;;;;;;;;5016420;28;20524;-89
2024/02/26 11:41:09;;;;;;;6.90;3.47;;;;;;;;;;5010281;28;20181;-87
2024/02/26 11:43:51;;;;;;;6.00;3.47;;;;;;;;;;5027983;28;20038;-93
2024/02/26 11:46:30;;;;;;;7.43;3.45;;;;;;;;;;5029972;28;20134;-92
2024/02/26 11:48:56;;;;;;;7.20;3.38;;;;;;;;;;5014043;28;20041;-89
2024/02/26 11:51:41;;;;;;;7.57;3.58;;;;;;;;;;5007567;28;20088;-86
2024/02/26 11:54:06;;;;;;;8.10;3.58;;;;;;;;;;5004437;28;20111;-88
2024/02/26 11:56:33;;;;;;;5.63;3.40;;;;;;;;;;5010684;28;20041;-78
2024/02/26 11:59:09;;;;;;;6.85;3.45;;;;;;;;;;5010216;28;20041;-80
2024/02/26 12:01:52;;;;;;;6.28;3.70;;;;;;;;;;5004934;28;20030;-80
2024/02/26 12:04:29;;;;;;;7.90;3.45;;;;;;;;;;5006658;28;20061;-81
2024/02/26 12:06:59;;;;;;;7.40;3.58;;;;;;;;;;5010807;28;20053;-80
2024/02/26 12:09:34;;;;;;;5.85;3.85;;;;;;;;;;5020737;28;20523;-80
2024/02/26 12:12:09;;;;;;;7.43;3.50;;;;;;;;;;4991181;28;20129;-80
2024/02/26 12:14:39;;;;;;;7.82;3.80;;;;;;;;;;5011304;28;20033;-81
2024/02/26 12:17:07;;;;;;;5.33;3.47;;;;;;;;;;5011032;28;20199;-81
2024/02/26 12:19:32;;;;;;;7.40;3.65;;;;;;;;;;5017756;28;20111;-81
2024/02/26 12:21:57;;;;;;;7.97;3.47;;;;;;;;;;5007491;28;20042;-80
2024/02/26 12:24:24;;;;;;;6.15;3.38;;;;;;;;;;5010833;28;20173;-81
2024/02/26 12:26:49;;;;;;;8.32;3.85;;;;;;;;;;5011189;28;20551;-82
2024/02/26 12:29:15;;;;;;;5.20;3.42;;;;;;;;;;5009183;28;20503;-81
2024/02/26 12:31:40;;;;;;;7.53;3.58;;;;;;;;;;5008661;28;20065;-81
2024/02/26 12:34:06;;;;;;;9.02;3.90;;;;;;;;;;5009474;28;20034;-81
2024/02/26 12:36:32;;;;;;;6.70;3.30;;;;;;;;;;5008164;28;20117;-81
2024/02/26 12:38:57;;;;;;;5.50;3.40;;;;;;;;;;5011025;28;20105;-80
2024/02/26 12:41:23;;;;;;;5.25;3.30;;;;;;;;;;5017615;28;20343;-80
2024/02/26 12:43:48;;;;;;;5.50;3.65;;;;;;;;;;5004337;28;20042;-80
2024/02/26 12:46:15;;;;;;;5.18;3.95;;;;;;;;;;5008220;28;20037;-80
2024/02/26 12:48:46;;;;;;;4.57;3.17;;;;;;;;;;5010931;28;20061;-80
2024/02/26 12:51:12;;;;;;;7.38;3.50;;;;;;;;;;5005963;28;20061;-80
2024/02/26 12:53:37;;;;;;;4.90;3.60;;;;;;;;;;5002095;28;20053;-80
2024/02/26 12:56:03;;;;;;;6.40;3.42;;;;;;;;;;5008913;28;20440;-80
2024/02/26 12:58:28;;;;;;;5.65;3.45;;;;;;;;;;5011616;28;20165;-80
2024/02/26 13:00:54;;;;;;;5.28;3.53;;;;;;;;;;5018978;28;20057;-89
2024/02/26 13:03:24;;;;;;;6.30;2.90;;;;;;;;;;5021824;28;20053;-86
2024/02/26 13:05:49;;;;;;;4.63;3.20;;;;;;;;;;5005511;28;20034;-85
2024/02/26 13:08:21;;;;;;;5.60;3.03;;;;;;;;;;5005349;28;20045;-84
2024/02/26 13:10:47;;;;;;;5.60;3.28;;;;;;;;;;5012931;28;20046;-85
2024/02/26 13:13:17;;;;;;;5.68;3.25;;;;;;;;;;5009944;28;20020;-84
2024/02/26 13:15:42;;;;;;;6.78;3.40;;;;;;;;;;5031926;28;20025;-80
2024/02/26 13:18:11;;;;;;;6.80;3.35;;;;;;;;;;5004847;28;20531;-81
2024/02/26 13:20:36;;;;;;;6.18;3.25;;;;;;;;;;5004679;28;20662;-90
2024/02/26 13:23:02;;;;;;;5.40;3.28;;;;;;;;;;5004471;28;20025;-80
2024/02/26 13:25:28;;;;;;;6.80;3.35;;;;;;;;;;5014061;28;20073;-81
2024/02/26 13:27:53;;;;;;;6.10;3.45;;;;;;;;;;5008281;28;20434;-81
2024/02/26 13:30:19;;;;;;;4.70;3.30;;;;;;;;;;4986451;28;20028;-81
2024/02/26 13:32:46;;;;;;;5.85;3.47;;;;;;;;;;5008179;28;20034;-81
2024/02/26 13:35:12;;;;;;;5.45;3.08;;;;;;;;;;5007073;28;20040;-80
2024/02/26 13:37:37;;;;;;;4.18;3.35;;;;;;;;;;5016323;28;20041;-80
2024/02/26 13:40:06;;;;;;;4.72;3.10;;;;;;;;;;4997888;28;20121;-80
2024/02/26 13:42:32;;;;;;;4.00;2.95;;;;;;;;;;5007600;28;20108;-79
2024/02/26 13:44:58;;;;;;;5.25;3.22;;;;;;;;;;5006443;28;20030;-79
2024/02/26 13:47:23;;;;;;;4.00;2.80;;;;;;;;;;4990542;28;20120;-80
2024/02/26 13:49:48;;;;;;;4.65;3.08;;;;;;;;;;5012848;28;20564;-78
2024/02/26 13:52:14;;;;;;;3.53;3.08;;;;;;;;;;5001116;28;20042;-82
2024/02/26 13:54:40;;;;;;;6.68;3.50;;;;;;;;;;5009507;28;20039;-79
2024/02/26 13:57:05;;;;;;;4.97;3.17;;;;;;;;;;5006981;28;20104;-79
2024/02/26 13:59:31;;;;;;;4.63;3.53;;;;;;;;;;5016694;28;20042;-80
2024/02/26 14:01:56;;;;;;;4.75;3.30;;;;;;;;;;5002203;28;20045;-80
2024/02/26 14:04:21;;;;;;;4.60;3.00;;;;;;;;;;5007613;28;20048;-80
2024/02/26 14:06:50;;;;;;;3.92;3.20;;;;;;;;;;5024692;28;20126;-80
2024/02/26 14:09:18;;;;;;;5.65;3.42;;;;;;;;;;5012463;28;20121;-80
2024/02/26 14:11:45;;;;;;;4.60;3.00;;;;;;;;;;5017788;28;20057;-81
2024/02/26 14:14:10;;;;;;;5.78;3.20;;;;;;;;;;5010266;28;20109;-81
2024/02/26 14:16:36;;;;;;;4.15;3.10;;;;;;;;;;5027304;28;20034;-79
2024/02/26 14:19:02;;;;;;;4.28;2.90;;;;;;;;;;5014980;28;20559;-80
2024/02/26 14:21:27;;;;;;;4.57;2.90;;;;;;;;;;5008832;28;20116;-80
2024/02/26 14:23:52;;;;;;;3.20;2.90;;;;;;;;;;5013764;28;20110;-80
2024/02/26 14:26:18;;;;;;;3.50;3.00;;;;;;;;;;5017253;28;20040;-80
2024/02/26 14:28:43;;;;;;;4.25;3.20;;;;;;;;;;5017398;28;20107;-80
2024/02/26 14:31:10;;;;;;;5.05;3.15;;;;;;;;;;5011637;28;20076;-81
2024/02/26 14:33:37;;;;;;;4.25;2.97;;;;;;;;;;5002421;28;20053;-80
2024/02/26 14:36:02;;;;;;;4.00;2.78;;;;;;;;;;5012957;28;20057;-80
2024/02/26 14:38:28;;;;;;;3.42;2.67;;;;;;;;;;5009758;28;20065;-81
2024/02/26 14:40:53;;;;;;;3.97;2.78;;;;;;;;;;5012870;28;20096;-79
2024/02/26 14:43:18;;;;;;;4.22;2.75;;;;;;;;;;4999752;28;20101;-81
2024/02/26 14:45:44;;;;;;;3.72;3.00;;;;;;;;;;5014018;28;20076;-81
2024/02/26 14:48:10;;;;;;;4.05;2.75;;;;;;;;;;5014395;28;20041;-80
2024/02/26 14:50:35;;;;;;;5.45;3.33;;;;;;;;;;5011582;28;20045;-79
2024/02/26 14:53:02;;;;;;;3.85;2.95;;;;;;;;;;5012528;28;20438;-80